createdAt,value
2022-09-05T00:02:24.445Z,75.80
2022-09-05T00:05:03.058Z,75.90
2022-09-05T00:07:58.822Z,75.90
2022-09-05T00:10:37.256Z,76.00
2022-09-05T00:13:10.627Z,76.10
2022-09-05T00:15:52.856Z,76.10
2022-09-05T00:24:20.153Z,76.20
2022-09-05T00:24:22.209Z,76.20
2022-09-05T00:25:13.998Z,76.20
2022-09-05T00:27:52.537Z,76.20
2022-09-05T00:31:05.738Z,76.20
2022-09-05T00:33:26.934Z,76.30
2022-09-05T00:36:13.200Z,76.40
2022-09-05T00:38:52.029Z,76.40
2022-09-05T00:41:21.290Z,76.50
2022-09-05T00:43:51.824Z,76.50
2022-09-05T00:46:24.291Z,76.40
2022-09-05T00:48:57.479Z,76.60
2022-09-05T00:51:35.277Z,76.40
2022-09-05T00:54:41.342Z,76.50
2022-09-05T00:57:33.143Z,76.60
2022-09-05T01:00:16.468Z,76.60
2022-09-05T01:03:09.418Z,76.80
2022-09-05T01:05:48.280Z,76.80
2022-09-05T01:08:30.942Z,76.80
2022-09-05T01:11:07.847Z,76.80
2022-09-05T01:13:46.733Z,76.60
2022-09-05T01:16:24.270Z,76.70
2022-09-05T01:19:05.619Z,76.60
2022-09-05T01:22:09.558Z,76.70
2022-09-05T01:24:52.736Z,76.70
2022-09-05T01:29:14.019Z,76.70
2022-09-05T01:30:53.142Z,76.80
2022-09-05T01:33:32.061Z,76.90
2022-09-05T01:36:12.399Z,76.90
2022-09-05T01:39:07.274Z,76.90
2022-09-05T01:41:46.139Z,76.90
2022-09-05T01:44:28.928Z,76.90
2022-09-05T01:47:06.584Z,76.90
2022-09-05T01:49:55.035Z,76.80
2022-09-05T01:52:59.236Z,76.90
2022-09-05T01:56:06.027Z,76.80
2022-09-05T01:58:38.635Z,76.80
2022-09-05T02:01:25.311Z,76.90
2022-09-05T02:04:29.462Z,77.00
2022-09-05T02:07:29.889Z,77.10
2022-09-05T02:10:32.510Z,77.10
2022-09-05T02:13:12.449Z,77.10
2022-09-05T02:15:59.483Z,77.20
2022-09-05T02:18:44.247Z,77.10
2022-09-05T02:21:22.391Z,77.30
2022-09-05T02:24:02.384Z,77.40
2022-09-05T02:26:35.587Z,77.30
2022-09-05T02:29:29.006Z,77.30
2022-09-05T02:32:01.994Z,77.40
2022-09-05T02:34:41.283Z,77.40
2022-09-05T02:37:16.029Z,77.50
2022-09-05T02:45:03.484Z,77.50
2022-09-05T02:45:18.803Z,77.50
2022-09-05T02:45:49.298Z,77.60
2022-09-05T02:48:23.870Z,77.70
2022-09-05T02:57:25.943Z,77.70
2022-09-05T02:57:40.243Z,77.70
2022-09-05T02:57:45.255Z,77.70
2022-09-05T03:00:00.977Z,77.70
2022-09-05T03:02:35.527Z,77.80
2022-09-05T03:05:10.163Z,77.90
2022-09-05T03:07:50.138Z,77.90
2022-09-05T03:10:54.547Z,77.80
2022-09-05T03:13:56.909Z,77.80
2022-09-05T03:16:53.780Z,78.00
2022-09-05T03:19:58.989Z,78.10
2022-09-05T03:22:56.544Z,78.10
2022-09-05T03:26:09.132Z,78.20
2022-09-05T03:29:19.312Z,78.20
2022-09-05T03:32:09.165Z,78.20
2022-09-05T03:35:11.677Z,78.00
2022-09-05T03:38:11.242Z,78.00
2022-09-05T03:41:01.097Z,78.00
2022-09-05T03:43:59.571Z,77.90
2022-09-05T03:46:44.765Z,77.90
2022-09-05T03:50:41.521Z,78.00
2022-09-05T03:57:19.763Z,78.20
2022-09-05T03:57:28.230Z,78.00
2022-09-05T03:59:23.104Z,78.30
2022-09-05T04:06:10.325Z,78.40
2022-09-05T04:08:20.475Z,78.30
2022-09-05T04:08:24.666Z,78.30
2022-09-05T04:10:40.280Z,78.20
2022-09-05T04:13:15.667Z,78.30
2022-09-05T04:15:54.566Z,78.40
2022-09-05T04:18:33.046Z,78.40
2022-09-05T04:21:08.008Z,78.40
2022-09-05T04:23:47.865Z,78.50
2022-09-05T04:26:26.769Z,78.60
2022-09-05T04:29:04.177Z,78.70
2022-09-05T04:31:44.195Z,78.80
2022-09-05T04:34:25.038Z,78.80
2022-09-05T04:37:02.362Z,78.70
2022-09-05T04:39:33.092Z,78.80
2022-09-05T04:42:17.691Z,78.80
2022-09-05T04:44:50.443Z,78.80
2022-09-05T04:47:29.425Z,78.90
2022-09-05T04:50:05.466Z,79.00
2022-09-05T04:53:10.283Z,79.00
2022-09-05T04:55:48.309Z,79.10
2022-09-05T04:58:39.143Z,79.20
2022-09-05T05:06:02.690Z,79.10
2022-09-05T05:06:11.900Z,79.20
2022-09-05T05:07:12.508Z,79.30
2022-09-05T05:09:44.667Z,79.30
2022-09-05T05:17:55.155Z,79.30
2022-09-05T05:18:02.175Z,79.30
2022-09-05T05:18:37.719Z,79.40
2022-09-05T05:21:02.613Z,79.40
2022-09-05T05:23:35.447Z,79.50
2022-09-05T05:26:05.977Z,79.60
2022-09-05T05:28:55.533Z,79.50
2022-09-05T05:31:27.992Z,79.60
2022-09-05T05:33:59.905Z,79.60
2022-09-05T05:36:35.694Z,79.70
2022-09-05T05:39:08.313Z,79.70
2022-09-05T05:41:42.045Z,79.70
2022-09-05T05:44:15.310Z,79.70
2022-09-05T05:46:47.937Z,79.70
2022-09-05T05:49:44.323Z,79.80
2022-09-05T05:52:45.192Z,79.80
2022-09-05T05:55:50.929Z,79.80
2022-09-05T05:58:59.554Z,79.60
2022-09-05T06:01:57.877Z,79.60
2022-09-05T06:05:17.788Z,79.50
2022-09-05T06:09:35.108Z,79.50
2022-09-05T06:14:50.039Z,79.30
2022-09-05T06:15:03.768Z,79.50
2022-09-05T06:18:14.761Z,79.30
2022-09-05T06:22:11.031Z,79.30
2022-09-05T06:24:39.790Z,79.10
2022-09-05T06:27:26.725Z,79.00
2022-09-05T06:30:01.390Z,79.00
2022-09-05T06:32:36.444Z,79.00
2022-09-05T06:35:27.531Z,78.90
2022-09-05T06:38:17.143Z,78.90
2022-09-05T06:40:54.736Z,78.80
2022-09-05T06:43:38.386Z,78.70
2022-09-05T06:46:55.211Z,78.70
2022-09-05T06:49:28.523Z,78.60
2022-09-05T06:52:38.843Z,78.50
2022-09-05T06:55:43.097Z,78.40
2022-09-05T06:58:44.308Z,78.30
2022-09-05T07:01:16.692Z,78.20
2022-09-05T07:05:15.581Z,78.10
2022-09-05T07:07:06.727Z,78.00
2022-09-05T07:09:48.597Z,77.90
2022-09-05T07:12:20.811Z,77.90
2022-09-05T07:14:59.203Z,77.80
2022-09-05T07:18:09.198Z,77.70
2022-09-05T07:21:15.839Z,77.60
2022-09-05T07:24:05.609Z,77.50
2022-09-05T07:26:51.654Z,77.50
2022-09-05T07:29:27.920Z,77.50
2022-09-05T07:31:57.106Z,77.40
2022-09-05T07:34:29.976Z,77.40
2022-09-05T07:37:14.843Z,77.30
2022-09-05T07:39:49.872Z,77.10
2022-09-05T07:42:25.779Z,77.20
2022-09-05T07:47:34.772Z,77.00
2022-09-05T07:52:10.742Z,77.00
2022-09-05T07:56:55.221Z,76.90
2022-09-05T07:56:59.937Z,77.00
2022-09-05T07:58:44.410Z,76.80
2022-09-05T08:01:14.883Z,76.80
2022-09-05T08:03:44.477Z,76.80
2022-09-05T08:06:37.539Z,76.70
2022-09-05T08:10:06.979Z,76.70
2022-09-05T08:12:11.309Z,76.60
2022-09-05T08:14:46.163Z,76.50
2022-09-05T08:17:19.025Z,76.50
2022-09-05T08:20:08.936Z,76.50
2022-09-05T08:22:52.266Z,76.30
2022-09-05T08:25:23.835Z,76.20
2022-09-05T08:28:06.215Z,76.00
2022-09-05T08:30:43.613Z,75.90
2022-09-05T08:33:15.358Z,75.90
2022-09-05T08:35:48.693Z,75.80
2022-09-05T08:38:18.726Z,75.60
2022-09-05T08:40:53.842Z,75.70
2022-09-05T08:46:38.064Z,75.60
2022-09-05T08:46:40.510Z,75.30
2022-09-05T08:49:46.318Z,75.00
2022-09-05T08:52:24.188Z,74.80
2022-09-05T08:55:07.311Z,74.70
2022-09-05T08:58:05.886Z,74.50
2022-09-05T09:00:41.676Z,74.30
2022-09-05T09:03:22.779Z,74.20
2022-09-05T09:06:22.031Z,73.90
2022-09-05T09:09:09.301Z,73.80
2022-09-05T09:11:44.035Z,73.50
2022-09-05T09:14:35.352Z,74.10
2022-09-05T09:17:19.266Z,73.10
2022-09-05T09:19:51.253Z,73.00
2022-09-05T09:22:30.056Z,72.70
2022-09-05T09:25:14.295Z,72.60
2022-09-05T09:28:47.773Z,72.60
2022-09-05T09:30:59.211Z,73.20
2022-09-05T09:33:37.797Z,72.30
2022-09-05T09:36:16.289Z,72.20
2022-09-05T09:39:13.118Z,71.90
2022-09-05T09:42:04.037Z,72.60
2022-09-05T09:45:27.427Z,71.80
2022-09-05T09:48:25.113Z,71.80
2022-09-05T09:51:12.269Z,71.70
2022-09-05T09:53:54.618Z,71.70
2022-09-05T09:57:00.160Z,71.40
2022-09-05T09:59:54.745Z,71.20
2022-09-05T10:06:39.465Z,71.20
2022-09-05T10:10:44.034Z,70.60
2022-09-05T10:10:49.216Z,70.80
2022-09-05T10:13:07.947Z,70.30
2022-09-05T10:15:53.574Z,70.40
2022-09-05T10:18:41.003Z,70.00
2022-09-05T10:21:27.164Z,69.70
2022-09-05T10:24:25.141Z,69.70
2022-09-05T10:27:20.733Z,69.60
2022-09-05T10:30:06.319Z,69.20
2022-09-05T10:35:08.290Z,69.00
2022-09-05T10:35:37.505Z,68.90
2022-09-05T10:38:11.570Z,68.90
2022-09-05T10:41:21.670Z,69.00
2022-09-05T10:43:34.626Z,69.20
2022-09-05T10:46:08.444Z,69.30
2022-09-05T10:48:47.958Z,69.00
2022-09-05T10:51:29.579Z,68.60
2022-09-05T10:54:19.937Z,68.60
2022-09-05T10:56:51.603Z,68.60
2022-09-05T11:01:33.388Z,68.20
2022-09-05T11:11:34.849Z,67.00
2022-09-05T11:14:07.252Z,66.70
2022-09-05T11:16:52.880Z,66.70
2022-09-05T11:19:28.159Z,66.20
2022-09-05T11:22:12.109Z,66.40
2022-09-05T11:24:55.448Z,66.40
2022-09-05T11:27:32.598Z,66.70
2022-09-05T11:30:05.615Z,67.30
2022-09-05T11:39:50.797Z,67.40
2022-09-05T11:39:50.834Z,67.30
2022-09-05T11:40:02.703Z,66.80
2022-09-05T11:42:27.366Z,66.60
2022-09-05T11:45:18.944Z,66.30
2022-09-05T11:48:12.490Z,65.90
2022-09-05T11:51:01.968Z,65.70
2022-09-05T11:53:47.500Z,65.40
2022-09-05T11:56:52.084Z,64.90
2022-09-05T11:59:45.126Z,64.70
2022-09-05T12:02:53.988Z,64.80
2022-09-05T12:06:02.680Z,64.70
2022-09-05T12:08:39.581Z,64.60
2022-09-05T12:11:22.078Z,64.30
2022-09-05T12:13:57.404Z,63.60
2022-09-05T12:16:44.384Z,63.30
2022-09-05T12:19:27.800Z,63.20
2022-09-05T12:22:23.861Z,63.20
2022-09-05T12:27:35.776Z,63.40
2022-09-05T12:29:32.931Z,62.70
2022-09-05T12:32:37.709Z,63.00
2022-09-05T12:36:07.081Z,62.80
2022-09-05T12:41:34.718Z,62.50
2022-09-05T12:41:37.924Z,62.40
2022-09-05T12:43:39.700Z,62.50
2022-09-05T12:45:47.463Z,62.90
2022-09-05T12:48:26.347Z,62.80
2022-09-05T12:51:11.075Z,63.00
2022-09-05T12:53:45.675Z,62.90
2022-09-05T12:57:27.744Z,62.80
2022-09-05T13:03:02.647Z,62.60
2022-09-05T13:03:11.271Z,62.50
2022-09-05T13:05:02.514Z,62.30
2022-09-05T13:07:40.992Z,62.20
2022-09-05T13:14:46.194Z,62.10
2022-09-05T13:14:53.192Z,61.90
2022-09-05T13:16:03.256Z,61.40
2022-09-05T13:18:39.125Z,60.90
2022-09-05T13:21:12.622Z,60.50
2022-09-05T13:23:50.602Z,60.90
2022-09-05T13:26:25.393Z,61.60
2022-09-05T13:29:10.688Z,61.30
2022-09-05T13:38:02.272Z,61.30
2022-09-05T13:38:07.411Z,61.20
2022-09-05T13:38:11.856Z,61.40
2022-09-05T13:40:40.401Z,61.40
2022-09-05T13:43:13.667Z,61.20
2022-09-05T13:46:03.378Z,61.40
2022-09-05T13:51:36.606Z,61.30
2022-09-05T13:54:30.436Z,61.10
2022-09-05T13:57:31.866Z,61.40
2022-09-05T14:00:38.538Z,61.30
2022-09-05T14:03:38.655Z,60.90
2022-09-05T14:06:46.079Z,60.60
2022-09-05T14:09:42.641Z,60.30
2022-09-05T14:12:29.283Z,60.50
2022-09-05T14:15:10.100Z,60.70
2022-09-05T14:17:58.289Z,61.10
2022-09-05T14:20:49.627Z,61.00
2022-09-05T14:23:20.104Z,60.60
2022-09-05T14:25:52.629Z,60.50
2022-09-05T14:28:27.073Z,60.50
2022-09-05T14:37:38.731Z,60.50
2022-09-05T14:37:45.590Z,60.50
2022-09-05T14:37:53.983Z,59.90
2022-09-05T14:40:49.716Z,60.30
2022-09-05T14:43:57.974Z,60.40
2022-09-05T14:46:39.233Z,60.50
2022-09-05T14:49:45.570Z,60.60
2022-09-05T14:52:24.458Z,60.00
2022-09-05T15:02:39.609Z,59.70
2022-09-05T15:02:48.284Z,59.60
2022-09-05T15:06:32.824Z,58.90
2022-09-05T15:11:24.383Z,59.00
2022-09-05T15:12:19.929Z,59.20
2022-09-05T15:14:52.347Z,59.20
2022-09-05T15:17:24.267Z,59.20
2022-09-05T15:20:05.697Z,59.10
2022-09-05T15:22:36.906Z,59.10
2022-09-05T15:25:17.501Z,59.00
2022-09-05T15:27:46.452Z,58.90
2022-09-05T15:30:20.304Z,58.80
2022-09-05T15:32:50.556Z,58.70
2022-09-05T15:35:36.596Z,59.00
2022-09-05T15:38:23.458Z,59.20
2022-09-05T15:41:19.470Z,59.10
2022-09-05T15:43:58.270Z,59.20
2022-09-05T15:46:35.771Z,59.30
2022-09-05T15:49:06.462Z,59.20
2022-09-05T15:51:42.299Z,59.20
2022-09-05T15:54:12.323Z,59.30
2022-09-05T15:56:57.372Z,59.30
2022-09-05T15:59:32.791Z,59.30
2022-09-05T16:02:07.631Z,59.30
2022-09-05T16:10:26.858Z,59.20
2022-09-05T16:10:34.787Z,58.70
2022-09-05T16:10:36.681Z,59.00
2022-09-05T16:13:14.893Z,58.90
2022-09-05T16:19:58.194Z,58.80
2022-09-05T16:23:14.431Z,58.90
2022-09-05T16:23:33.828Z,59.00
2022-09-05T16:24:29.928Z,59.10
2022-09-05T16:27:14.915Z,59.20
2022-09-05T16:29:48.374Z,59.30
2022-09-05T16:32:22.281Z,59.50
2022-09-05T16:34:55.579Z,59.40
2022-09-05T16:37:29.759Z,59.40
2022-09-05T16:40:04.996Z,59.50
2022-09-05T16:42:46.670Z,59.70
2022-09-05T16:45:25.865Z,59.70
2022-09-05T16:48:05.673Z,59.80
2022-09-05T16:50:39.032Z,59.90
2022-09-05T16:53:28.248Z,60.10
2022-09-05T16:56:02.430Z,60.20
2022-09-05T16:58:34.502Z,60.20
2022-09-05T17:01:19.960Z,60.10
2022-09-05T17:03:58.557Z,60.10
2022-09-05T17:06:43.745Z,60.10
2022-09-05T17:09:22.926Z,60.40
2022-09-05T17:12:01.268Z,60.40
2022-09-05T17:14:35.051Z,60.40
2022-09-05T17:17:19.546Z,60.60
2022-09-05T17:20:07.080Z,60.60
2022-09-05T17:24:56.720Z,60.60
2022-09-05T17:29:25.749Z,60.50
2022-09-05T17:29:32.595Z,61.30
2022-09-05T17:31:56.609Z,60.70
2022-09-05T17:35:03.673Z,60.80
2022-09-05T17:38:11.657Z,60.80
2022-09-05T17:41:30.676Z,60.80
2022-09-05T17:44:07.326Z,60.90
2022-09-05T17:46:42.833Z,61.30
2022-09-05T17:49:19.702Z,61.10
2022-09-05T17:52:22.889Z,61.30
2022-09-05T17:54:53.890Z,61.30
2022-09-05T17:57:41.207Z,61.40
2022-09-05T18:01:00.917Z,61.30
2022-09-05T18:04:15.805Z,61.40
2022-09-05T18:07:00.273Z,61.30
2022-09-05T18:09:58.804Z,61.40
2022-09-05T18:13:13.897Z,61.50
2022-09-05T18:16:02.678Z,61.50
2022-09-05T18:19:02.248Z,61.50
2022-09-05T18:21:25.753Z,61.60
2022-09-05T18:24:02.301Z,61.60
2022-09-05T18:26:40.916Z,61.60
2022-09-05T18:29:24.663Z,61.50
2022-09-05T18:32:12.649Z,61.50
2022-09-05T18:34:46.088Z,61.50
2022-09-05T18:38:02.142Z,61.60
2022-09-05T18:40:43.690Z,61.70
2022-09-05T18:43:21.549Z,61.70
2022-09-05T18:45:54.157Z,61.80
2022-09-05T18:48:29.970Z,61.90
2022-09-05T18:51:15.041Z,61.90
2022-09-05T18:53:47.444Z,61.90
2022-09-05T18:56:27.377Z,61.90
2022-09-05T18:59:09.906Z,62.00
2022-09-05T19:01:43.518Z,61.90
2022-09-05T19:04:40.434Z,62.00
2022-09-05T19:07:11.378Z,62.20
2022-09-05T19:09:55.849Z,62.30
2022-09-05T19:12:32.922Z,62.40
2022-09-05T19:15:08.632Z,62.40
2022-09-05T19:17:39.517Z,62.40
2022-09-05T19:20:31.743Z,62.40
2022-09-05T19:23:10.154Z,62.40
2022-09-05T19:25:42.224Z,62.40
2022-09-05T19:36:59.817Z,62.50
2022-09-05T19:37:12.158Z,62.50
2022-09-05T19:37:13.088Z,62.40
2022-09-05T19:37:29.400Z,62.50
2022-09-05T19:46:17.037Z,62.40
2022-09-05T19:47:31.322Z,62.40
2022-09-05T19:47:39.846Z,62.40
2022-09-05T19:50:55.435Z,62.60
2022-09-05T19:53:24.233Z,62.80
2022-09-05T19:55:53.648Z,62.90
2022-09-05T19:58:24.017Z,63.00
2022-09-05T20:01:02.539Z,63.20
2022-09-05T20:03:39.123Z,63.20
2022-09-05T20:06:30.017Z,63.20
2022-09-05T20:09:15.623Z,63.30
2022-09-05T20:11:49.361Z,63.40
2022-09-05T20:14:19.375Z,63.50
2022-09-05T20:16:49.678Z,63.50
2022-09-05T20:19:31.224Z,63.70
2022-09-05T20:22:21.209Z,63.80
2022-09-05T20:25:35.338Z,63.80
2022-09-05T20:28:09.894Z,64.00
2022-09-05T20:30:42.598Z,63.90
2022-09-05T20:33:17.084Z,64.10
2022-09-05T20:41:06.930Z,64.20
2022-09-05T20:43:23.806Z,64.30
2022-09-05T20:43:28.824Z,64.40
2022-09-05T20:44:52.664Z,64.60
2022-09-05T20:54:05.337Z,64.60
2022-09-05T20:54:21.963Z,64.70
2022-09-05T20:54:24.997Z,64.90
2022-09-05T20:56:10.814Z,65.00
2022-09-05T20:58:40.001Z,65.10
2022-09-05T21:01:21.238Z,65.00
2022-09-05T21:04:03.570Z,65.00
2022-09-05T21:06:34.434Z,65.10
2022-09-05T21:09:17.793Z,65.00
2022-09-05T21:11:54.031Z,65.10
2022-09-05T21:14:23.383Z,65.00
2022-09-05T21:16:58.571Z,65.10
2022-09-05T21:19:30.201Z,65.10
2022-09-05T21:22:07.088Z,65.00
2022-09-05T21:24:36.871Z,65.00
2022-09-05T21:27:16.684Z,65.00
2022-09-05T21:29:45.581Z,65.10
2022-09-05T21:32:25.159Z,65.10
2022-09-05T21:34:55.865Z,65.00
2022-09-05T21:37:23.919Z,65.00
2022-09-05T21:39:59.152Z,65.10
2022-09-05T21:44:25.411Z,65.10
2022-09-05T21:47:44.822Z,65.20
2022-09-05T21:48:07.720Z,65.10
2022-09-05T21:50:40.028Z,65.20
2022-09-05T21:59:08.216Z,65.20
2022-09-05T21:59:18.647Z,65.20
2022-09-05T21:59:20.589Z,65.20
2022-09-05T22:01:59.334Z,65.30
2022-09-05T22:04:27.601Z,65.30
2022-09-05T22:06:58.236Z,65.40
2022-09-05T22:09:26.104Z,65.60
2022-09-05T22:11:55.465Z,65.60
2022-09-05T22:14:25.566Z,66.40
2022-09-05T22:16:56.555Z,65.80
2022-09-05T22:19:37.483Z,65.80
2022-09-05T22:22:15.422Z,65.80
2022-09-05T22:24:47.117Z,65.90
2022-09-05T22:27:19.769Z,65.80
2022-09-05T22:29:50.293Z,65.90
2022-09-05T22:32:33.922Z,65.80
2022-09-05T22:35:27.624Z,65.90
2022-09-05T22:37:59.305Z,65.90
2022-09-05T22:40:28.393Z,66.10
2022-09-05T22:42:58.509Z,66.10
2022-09-05T22:45:26.537Z,66.10
2022-09-05T22:47:54.661Z,66.20
2022-09-05T22:50:22.752Z,66.30
2022-09-05T22:52:50.693Z,66.20
2022-09-05T22:55:19.099Z,66.30
2022-09-05T22:57:47.012Z,66.30
2022-09-05T23:00:16.470Z,66.40
2022-09-05T23:02:46.115Z,66.30
2022-09-05T23:05:16.960Z,66.30
2022-09-05T23:07:44.753Z,66.30
2022-09-05T23:10:12.595Z,66.30
2022-09-05T23:12:40.342Z,66.30
2022-09-05T23:15:08.874Z,66.30
2022-09-05T23:17:37.984Z,66.40
2022-09-05T23:20:06.569Z,66.30
2022-09-05T23:22:36.874Z,66.40
2022-09-05T23:25:05.173Z,66.30
2022-09-05T23:27:36.511Z,66.40
2022-09-05T23:30:06.218Z,66.40
2022-09-05T23:32:34.576Z,66.50
2022-09-05T23:35:03.948Z,66.50
2022-09-05T23:37:31.709Z,66.60
2022-09-05T23:39:59.564Z,66.50
2022-09-05T23:42:27.459Z,66.50
2022-09-05T23:44:55.246Z,66.40
2022-09-05T23:47:23.000Z,66.50
2022-09-05T23:49:50.858Z,66.50
2022-09-05T23:52:19.993Z,66.50
2022-09-05T23:54:47.779Z,66.50
2022-09-05T23:57:15.552Z,66.50
2022-09-05T23:59:43.335Z,66.50
